Colerain, North Carolina
Current Conditions -  °F | °C
As of 1:55 PM on Saturday 25 Oct 2014 (Local Time) from KEDE Reporting Station
Clear Clear  
Wind Chill: 67°   Ceiling: Unl
Heat Index: 67°   Visibility: 10mi
Dew Point: 46°   Wind: 5mph
Humidity: 46%   Direction: 210°SSW
Pressure: 29.93"   Gusts: NA
Location:  36.2°N, 76.77°W
Report Text: KEDE 251755Z AUTO 21004KT 10SM CLR 20/08 A2993 RMK AO2 T01970079 10198 20061
Loading
Personal Weather Stations






























Interactive Weather Map
Tropical Storm Tracking
New forecast layout! Learn more

10-Day Weather Forecast

Advertisements
Track Severe Weather on mobile